createdAt,value
2017-12-02T00:00:48.728Z,1025.54
2017-12-02T00:02:16.020Z,1025.57
2017-12-02T00:03:43.167Z,1025.60
2017-12-02T00:05:10.506Z,1025.63
2017-12-02T00:06:37.561Z,1025.64
2017-12-02T00:08:04.835Z,1025.65
2017-12-02T00:09:31.906Z,1025.66
2017-12-02T00:10:59.419Z,1025.70
2017-12-02T00:12:26.594Z,1025.71
2017-12-02T00:13:53.834Z,1025.74
2017-12-02T00:15:20.769Z,1025.75
2017-12-02T00:16:48.199Z,1025.78
2017-12-02T00:18:15.483Z,1025.78
2017-12-02T00:19:42.528Z,1025.79
2017-12-02T00:21:09.663Z,1025.77
2017-12-02T00:22:36.854Z,1025.76
2017-12-02T00:24:04.120Z,1025.76
2017-12-02T00:25:31.140Z,1025.77
2017-12-02T00:26:58.505Z,1025.78
2017-12-02T00:28:25.746Z,1025.78
2017-12-02T00:29:53.020Z,1025.82
2017-12-02T00:31:20.418Z,1025.82
2017-12-02T00:32:47.351Z,1025.81
2017-12-02T00:34:14.763Z,1025.83
2017-12-02T00:35:41.881Z,1025.83
2017-12-02T00:37:09.102Z,1025.83
2017-12-02T00:38:36.302Z,1025.80
2017-12-02T00:40:03.620Z,1025.79
2017-12-02T00:41:30.880Z,1025.82
2017-12-02T00:42:58.156Z,1025.83
2017-12-02T00:44:25.151Z,1025.86
2017-12-02T00:45:52.479Z,1025.87
2017-12-02T00:47:19.543Z,1025.90
2017-12-02T00:48:46.716Z,1025.93
2017-12-02T00:50:13.590Z,1025.99
2017-12-02T00:51:41.048Z,1026.01
2017-12-02T00:53:08.254Z,1025.99
2017-12-02T00:54:35.492Z,1026.00
2017-12-02T00:56:02.608Z,1026.01
2017-12-02T00:57:29.766Z,1026.02
2017-12-02T00:58:56.988Z,1026.05
2017-12-02T01:00:24.304Z,1026.05
2017-12-02T01:01:51.448Z,1026.08
2017-12-02T01:03:18.326Z,1026.10
2017-12-02T01:04:45.484Z,1026.12
2017-12-02T01:06:12.813Z,1026.15
2017-12-02T01:07:39.811Z,1026.16
2017-12-02T01:09:06.812Z,1026.18
2017-12-02T01:10:34.040Z,1026.19
2017-12-02T01:12:01.050Z,1026.21
2017-12-02T01:13:28.276Z,1026.21
2017-12-02T01:14:55.479Z,1026.25
2017-12-02T01:16:22.573Z,1026.27
2017-12-02T01:17:50.035Z,1026.29
2017-12-02T01:19:16.689Z,1026.33
2017-12-02T01:20:43.566Z,1026.33
2017-12-02T01:22:10.957Z,1026.33
2017-12-02T01:23:37.629Z,1026.34
2017-12-02T01:25:04.841Z,1026.38
2017-12-02T01:26:31.887Z,1026.40
2017-12-02T01:27:58.917Z,1026.40
2017-12-02T01:29:26.395Z,1026.39
2017-12-02T01:30:53.595Z,1026.39
2017-12-02T01:32:20.786Z,1026.40
2017-12-02T01:33:48.123Z,1026.42
2017-12-02T01:35:15.306Z,1026.43
2017-12-02T01:36:42.327Z,1026.42
2017-12-02T01:38:09.524Z,1026.45
2017-12-02T01:39:36.861Z,1026.44
2017-12-02T01:41:04.087Z,1026.45
2017-12-02T01:42:31.196Z,1026.44
2017-12-02T01:43:58.613Z,1026.45
2017-12-02T01:45:25.813Z,1026.47
2017-12-02T01:46:52.925Z,1026.48
2017-12-02T01:48:20.174Z,1026.49
2017-12-02T01:49:47.366Z,1026.50
2017-12-02T01:51:14.751Z,1026.50
2017-12-02T01:52:42.146Z,1026.51
2017-12-02T01:54:09.209Z,1026.51
2017-12-02T01:55:36.539Z,1026.53
2017-12-02T01:57:03.694Z,1026.53
2017-12-02T01:58:30.936Z,1026.54
2017-12-02T01:59:58.371Z,1026.54
2017-12-02T02:01:25.240Z,1026.55
2017-12-02T02:02:52.725Z,1026.57
2017-12-02T02:04:19.991Z,1026.55
2017-12-02T02:05:47.324Z,1026.55
2017-12-02T02:07:14.605Z,1026.55
2017-12-02T02:08:41.983Z,1026.53
2017-12-02T02:10:09.158Z,1026.53
2017-12-02T02:11:36.384Z,1026.51
2017-12-02T02:13:03.517Z,1026.54
2017-12-02T02:14:30.468Z,1026.54
2017-12-02T02:15:57.710Z,1026.54
2017-12-02T02:17:25.113Z,1026.57
2017-12-02T02:18:52.352Z,1026.56
2017-12-02T02:20:19.680Z,1026.58
2017-12-02T02:21:46.936Z,1026.63
2017-12-02T02:23:14.477Z,1026.61
2017-12-02T02:24:41.645Z,1026.62
2017-12-02T02:26:08.877Z,1026.64
2017-12-02T02:27:36.027Z,1026.63
2017-12-02T02:29:03.164Z,1026.62
2017-12-02T02:30:30.086Z,1026.65
2017-12-02T02:31:57.290Z,1026.74
2017-12-02T02:33:24.471Z,1026.80
2017-12-02T02:34:51.407Z,1026.81
2017-12-02T02:36:18.737Z,1026.78
2017-12-02T02:37:46.099Z,1026.75
2017-12-02T02:39:13.010Z,1026.70
2017-12-02T02:40:40.327Z,1026.70
2017-12-02T02:42:07.559Z,1026.70
2017-12-02T02:43:34.615Z,1026.68
2017-12-02T02:45:01.762Z,1026.71
2017-12-02T02:46:28.798Z,1026.73
2017-12-02T02:47:56.164Z,1026.77
2017-12-02T02:49:23.116Z,1026.81
2017-12-02T02:50:50.436Z,1026.84
2017-12-02T02:52:17.277Z,1026.83
2017-12-02T02:53:44.436Z,1026.80
2017-12-02T02:55:11.603Z,1026.78
2017-12-02T02:56:38.963Z,1026.78
2017-12-02T02:58:05.879Z,1026.75
2017-12-02T02:59:33.152Z,1026.75
2017-12-02T03:01:00.187Z,1026.76
2017-12-02T03:02:27.427Z,1026.77
2017-12-02T03:03:54.646Z,1026.76
2017-12-02T03:05:21.921Z,1026.78
2017-12-02T03:06:49.395Z,1026.79
2017-12-02T03:08:16.510Z,1026.79
2017-12-02T03:09:43.946Z,1026.79
2017-12-02T03:11:11.299Z,1026.78
2017-12-02T03:12:38.489Z,1026.81
2017-12-02T03:14:05.501Z,1026.81
2017-12-02T03:15:32.581Z,1026.84
2017-12-02T03:16:59.774Z,1026.83
2017-12-02T03:18:27.040Z,1026.80
2017-12-02T03:19:54.153Z,1026.79
2017-12-02T03:21:21.320Z,1026.77
2017-12-02T03:22:48.551Z,1026.79
2017-12-02T03:24:15.741Z,1026.82
2017-12-02T03:25:42.851Z,1026.85
2017-12-02T03:27:10.269Z,1026.88
2017-12-02T03:28:37.674Z,1026.93
2017-12-02T03:30:04.920Z,1026.94
2017-12-02T03:31:32.218Z,1026.95
2017-12-02T03:32:59.388Z,1026.95
2017-12-02T03:34:26.801Z,1026.94
2017-12-02T03:35:54.077Z,1026.92
2017-12-02T03:37:21.443Z,1026.92
2017-12-02T03:38:48.419Z,1026.94
2017-12-02T03:40:15.730Z,1026.91
2017-12-02T03:41:43.039Z,1026.93
2017-12-02T03:43:10.190Z,1026.92
2017-12-02T03:44:37.538Z,1026.94
2017-12-02T03:46:04.792Z,1026.97
2017-12-02T03:47:31.934Z,1026.99
2017-12-02T03:48:58.762Z,1027.04
2017-12-02T03:50:25.936Z,1027.08
2017-12-02T03:51:53.225Z,1027.11
2017-12-02T03:53:20.578Z,1027.11
2017-12-02T03:54:47.764Z,1027.13
2017-12-02T03:56:15.017Z,1027.12
2017-12-02T03:57:42.369Z,1027.15
2017-12-02T03:59:09.718Z,1027.16
2017-12-02T04:00:36.928Z,1027.15
2017-12-02T04:02:03.896Z,1027.16
2017-12-02T04:03:31.078Z,1027.15
2017-12-02T04:04:58.082Z,1027.13
2017-12-02T04:06:25.317Z,1027.15
2017-12-02T04:07:52.460Z,1027.19
2017-12-02T04:09:19.621Z,1027.22
2017-12-02T04:10:46.713Z,1027.27
2017-12-02T04:12:13.366Z,1027.29
2017-12-02T04:13:40.477Z,1027.28
2017-12-02T04:15:07.500Z,1027.30
2017-12-02T04:16:34.779Z,1027.32
2017-12-02T04:18:01.836Z,1027.33
2017-12-02T04:19:28.630Z,1027.31
2017-12-02T04:20:55.981Z,1027.29
2017-12-02T04:22:23.321Z,1027.27
2017-12-02T04:23:50.608Z,1027.28
2017-12-02T04:25:17.907Z,1027.28
2017-12-02T04:26:44.959Z,1027.32
2017-12-02T04:28:12.167Z,1027.33
2017-12-02T04:29:39.463Z,1027.35
2017-12-02T04:31:09.748Z,1027.34
2017-12-02T04:32:33.833Z,1027.34
2017-12-02T04:34:01.102Z,1027.36
2017-12-02T04:35:28.134Z,1027.33
2017-12-02T04:36:55.380Z,1027.34
2017-12-02T04:38:22.717Z,1027.35
2017-12-02T04:39:49.793Z,1027.35
2017-12-02T04:41:16.966Z,1027.40
2017-12-02T04:42:44.003Z,1027.40
2017-12-02T04:44:11.252Z,1027.37
2017-12-02T04:45:38.217Z,1027.36
2017-12-02T04:47:05.438Z,1027.38
2017-12-02T04:48:32.618Z,1027.36
2017-12-02T04:49:59.668Z,1027.37
2017-12-02T04:51:28.179Z,1027.41
2017-12-02T04:52:53.929Z,1027.43
2017-12-02T04:54:21.277Z,1027.42
2017-12-02T04:55:48.515Z,1027.45
2017-12-02T04:57:15.926Z,1027.49
2017-12-02T04:58:43.460Z,1027.49
2017-12-02T05:00:10.526Z,1027.54
2017-12-02T05:01:37.886Z,1027.52
2017-12-02T05:03:05.139Z,1027.52
2017-12-02T05:04:32.276Z,1027.51
2017-12-02T05:05:59.306Z,1027.53
2017-12-02T05:07:26.615Z,1027.54
2017-12-02T05:08:53.839Z,1027.57
2017-12-02T05:10:21.165Z,1027.58
2017-12-02T05:11:48.494Z,1027.61
2017-12-02T05:13:15.594Z,1027.62
2017-12-02T05:14:42.941Z,1027.62
2017-12-02T05:16:10.113Z,1027.63
2017-12-02T05:17:37.189Z,1027.61
2017-12-02T05:19:04.462Z,1027.62
2017-12-02T05:20:31.541Z,1027.65
2017-12-02T05:21:58.890Z,1027.67
2017-12-02T05:23:25.751Z,1027.68
2017-12-02T05:24:52.865Z,1027.71
2017-12-02T05:26:20.025Z,1027.72
2017-12-02T05:27:47.356Z,1027.78
2017-12-02T05:29:14.416Z,1027.80
2017-12-02T05:30:41.669Z,1027.80
2017-12-02T05:32:08.495Z,1027.81
2017-12-02T05:33:35.627Z,1027.83
2017-12-02T05:35:02.820Z,1027.87
2017-12-02T05:36:29.824Z,1027.88
2017-12-02T05:37:56.797Z,1027.93
2017-12-02T05:39:24.148Z,1027.96
2017-12-02T05:40:51.421Z,1027.99
2017-12-02T05:42:18.402Z,1028.01
2017-12-02T05:43:45.790Z,1028.02
2017-12-02T05:45:12.895Z,1027.99
2017-12-02T05:46:39.957Z,1027.99
2017-12-02T05:48:07.187Z,1028.01
2017-12-02T05:49:34.391Z,1028.02
2017-12-02T05:51:01.547Z,1028.02
2017-12-02T05:52:28.823Z,1028.01
2017-12-02T05:53:55.988Z,1028.01
2017-12-02T05:55:23.155Z,1028.05
2017-12-02T05:56:50.069Z,1028.08
2017-12-02T05:58:17.179Z,1028.08
2017-12-02T05:59:44.401Z,1028.11
2017-12-02T06:01:11.616Z,1028.13
2017-12-02T06:02:38.999Z,1028.13
2017-12-02T06:04:05.864Z,1028.15
2017-12-02T06:05:33.045Z,1028.16
2017-12-02T06:07:00.136Z,1028.18
2017-12-02T06:08:27.413Z,1028.21
2017-12-02T06:09:54.430Z,1028.24
2017-12-02T06:11:21.376Z,1028.24
2017-12-02T06:12:48.785Z,1028.28
2017-12-02T06:14:15.955Z,1028.28
2017-12-02T06:15:43.378Z,1028.30
2017-12-02T06:17:10.666Z,1028.31
2017-12-02T06:18:37.873Z,1028.30
2017-12-02T06:20:05.127Z,1028.30
2017-12-02T06:21:32.178Z,1028.30
2017-12-02T06:22:59.095Z,1028.29
2017-12-02T06:24:26.236Z,1028.30
2017-12-02T06:25:53.714Z,1028.29
2017-12-02T06:27:20.959Z,1028.27
2017-12-02T06:28:48.504Z,1028.27
2017-12-02T06:30:15.369Z,1028.27
2017-12-02T06:31:42.280Z,1028.28
2017-12-02T06:33:09.494Z,1028.29
2017-12-02T06:34:36.813Z,1028.28
2017-12-02T06:36:03.936Z,1028.30
2017-12-02T06:37:31.203Z,1028.32
2017-12-02T06:38:58.313Z,1028.39
2017-12-02T06:40:25.298Z,1028.47
2017-12-02T06:41:52.260Z,1028.52
2017-12-02T06:43:19.459Z,1028.52
2017-12-02T06:44:46.796Z,1028.50
2017-12-02T06:46:14.119Z,1028.45
2017-12-02T06:47:41.392Z,1028.46
2017-12-02T06:49:08.659Z,1028.47
2017-12-02T06:50:35.675Z,1028.43
2017-12-02T06:52:02.799Z,1028.46
2017-12-02T06:53:30.028Z,1028.47
2017-12-02T06:54:57.148Z,1028.49
2017-12-02T06:56:24.235Z,1028.48
2017-12-02T06:57:51.512Z,1028.52
2017-12-02T06:59:18.308Z,1028.55
2017-12-02T07:00:45.491Z,1028.55
2017-12-02T07:02:12.481Z,1028.55
2017-12-02T07:03:39.588Z,1028.58
2017-12-02T07:05:06.531Z,1028.58
2017-12-02T07:06:33.540Z,1028.58
2017-12-02T07:08:00.932Z,1028.59
2017-12-02T07:09:28.166Z,1028.61
2017-12-02T07:10:55.366Z,1028.60
2017-12-02T07:12:22.688Z,1028.63
2017-12-02T07:13:49.943Z,1028.61
2017-12-02T07:15:17.137Z,1028.61
2017-12-02T07:16:44.457Z,1028.61
2017-12-02T07:18:11.683Z,1028.64
2017-12-02T07:19:38.801Z,1028.65
2017-12-02T07:21:05.996Z,1028.64
2017-12-02T07:22:33.165Z,1028.61
2017-12-02T07:24:00.322Z,1028.61
2017-12-02T07:25:27.643Z,1028.63
2017-12-02T07:26:54.571Z,1028.63
2017-12-02T07:28:21.736Z,1028.63
2017-12-02T07:29:48.906Z,1028.61
2017-12-02T07:31:15.806Z,1028.61
2017-12-02T07:32:43.107Z,1028.60
2017-12-02T07:34:10.432Z,1028.61
2017-12-02T07:35:37.483Z,1028.63
2017-12-02T07:37:04.755Z,1028.63
2017-12-02T07:38:31.840Z,1028.62
2017-12-02T07:39:59.095Z,1028.60
2017-12-02T07:41:26.311Z,1028.61
2017-12-02T07:42:53.467Z,1028.63
2017-12-02T07:44:20.556Z,1028.64
2017-12-02T07:45:47.582Z,1028.64
2017-12-02T07:47:14.685Z,1028.63
2017-12-02T07:48:41.928Z,1028.65
2017-12-02T07:50:09.310Z,1028.67
2017-12-02T07:51:36.657Z,1028.67
2017-12-02T07:53:03.904Z,1028.71
2017-12-02T07:54:30.859Z,1028.72
2017-12-02T07:55:58.051Z,1028.72
2017-12-02T07:57:25.259Z,1028.74
2017-12-02T07:58:52.674Z,1028.73
2017-12-02T08:00:19.951Z,1028.72
2017-12-02T08:01:47.174Z,1028.70
2017-12-02T08:03:14.478Z,1028.67
2017-12-02T08:04:41.883Z,1028.67
2017-12-02T08:06:09.010Z,1028.69
2017-12-02T08:07:36.253Z,1028.68
2017-12-02T08:09:03.245Z,1028.69
2017-12-02T08:10:30.417Z,1028.71
2017-12-02T08:11:57.449Z,1028.73
2017-12-02T08:13:24.528Z,1028.73
2017-12-02T08:14:51.711Z,1028.75
2017-12-02T08:16:18.599Z,1028.77
2017-12-02T08:17:45.921Z,1028.78
2017-12-02T08:19:13.053Z,1028.81
2017-12-02T08:20:40.175Z,1028.82
2017-12-02T08:22:07.396Z,1028.85
2017-12-02T08:23:34.406Z,1028.93
2017-12-02T08:25:01.648Z,1028.98
2017-12-02T08:26:28.795Z,1029.01
2017-12-02T08:27:55.861Z,1029.08
2017-12-02T08:29:23.121Z,1029.09
2017-12-02T08:30:50.392Z,1029.10
2017-12-02T08:32:17.759Z,1029.11
2017-12-02T08:33:44.955Z,1029.12
2017-12-02T08:35:12.272Z,1029.14
2017-12-02T08:36:39.542Z,1029.14
2017-12-02T08:38:06.894Z,1029.16
2017-12-02T08:39:34.011Z,1029.19
2017-12-02T08:41:00.945Z,1029.23
2017-12-02T08:42:28.165Z,1029.25
2017-12-02T08:43:55.411Z,1029.28
2017-12-02T08:45:22.735Z,1029.31
2017-12-02T08:46:49.846Z,1029.28
2017-12-02T08:48:17.118Z,1029.30
2017-12-02T08:49:44.422Z,1029.31
2017-12-02T08:51:11.586Z,1029.35
2017-12-02T08:52:38.860Z,1029.36
2017-12-02T08:54:06.076Z,1029.37
2017-12-02T08:55:33.461Z,1029.38
2017-12-02T08:57:00.459Z,1029.36
2017-12-02T08:58:27.642Z,1029.34
2017-12-02T08:59:54.957Z,1029.33
2017-12-02T09:01:22.268Z,1029.33
2017-12-02T09:02:49.567Z,1029.32
2017-12-02T09:04:16.857Z,1029.31
2017-12-02T09:05:44.135Z,1029.32
2017-12-02T09:07:11.524Z,1029.36
2017-12-02T09:08:38.672Z,1029.36
2017-12-02T09:10:05.905Z,1029.40
2017-12-02T09:11:33.036Z,1029.40
2017-12-02T09:13:00.260Z,1029.37
2017-12-02T09:14:27.492Z,1029.38
2017-12-02T09:15:54.719Z,1029.38
2017-12-02T09:17:21.956Z,1029.40
2017-12-02T09:18:49.416Z,1029.40
2017-12-02T09:20:16.790Z,1029.45
2017-12-02T09:21:44.023Z,1029.44
2017-12-02T09:23:11.268Z,1029.42
2017-12-02T09:24:38.396Z,1029.42
2017-12-02T09:26:05.566Z,1029.46
2017-12-02T09:27:32.757Z,1029.45
2017-12-02T09:28:59.796Z,1029.46
2017-12-02T09:30:26.951Z,1029.47
2017-12-02T09:31:54.597Z,1029.49
2017-12-02T09:33:21.741Z,1029.53
2017-12-02T09:34:49.049Z,1029.55
2017-12-02T09:36:16.313Z,1029.57
2017-12-02T09:37:43.699Z,1029.59
2017-12-02T09:39:10.820Z,1029.59
2017-12-02T09:40:38.196Z,1029.58
2017-12-02T09:42:05.186Z,1029.60
2017-12-02T09:43:32.455Z,1029.62
2017-12-02T09:44:59.398Z,1029.61
2017-12-02T09:46:26.563Z,1029.63
2017-12-02T09:47:53.909Z,1029.63
2017-12-02T09:49:21.116Z,1029.63
2017-12-02T09:50:48.411Z,1029.64
2017-12-02T09:52:15.503Z,1029.64
2017-12-02T09:53:42.772Z,1029.64
2017-12-02T09:55:10.106Z,1029.63
2017-12-02T09:56:37.227Z,1029.64
2017-12-02T09:58:04.604Z,1029.61
2017-12-02T09:59:31.573Z,1029.58
2017-12-02T10:00:58.982Z,1029.60
2017-12-02T10:02:26.316Z,1029.57
2017-12-02T10:03:53.419Z,1029.59
2017-12-02T10:05:20.634Z,1029.58
2017-12-02T10:06:47.814Z,1029.58
2017-12-02T10:08:14.931Z,1029.55
2017-12-02T10:09:42.264Z,1029.52
2017-12-02T10:11:09.584Z,1029.49
2017-12-02T10:12:36.760Z,1029.47
2017-12-02T10:14:03.773Z,1029.45
2017-12-02T10:15:30.876Z,1029.45
2017-12-02T10:16:57.898Z,1029.45
2017-12-02T10:18:25.113Z,1029.42
2017-12-02T10:19:52.536Z,1029.36
2017-12-02T10:21:20.922Z,1029.33
2017-12-02T10:22:47.182Z,1029.32
2017-12-02T10:24:14.219Z,1029.29
2017-12-02T10:25:41.344Z,1029.29
2017-12-02T10:27:08.632Z,1029.29
2017-12-02T10:28:36.102Z,1029.32
2017-12-02T10:30:03.125Z,1029.28
2017-12-02T10:31:30.296Z,1029.26
2017-12-02T10:32:57.537Z,1029.20
2017-12-02T10:34:24.365Z,1029.20
2017-12-02T10:35:51.557Z,1029.16
2017-12-02T10:37:18.664Z,1029.14
2017-12-02T10:38:45.972Z,1029.13
2017-12-02T10:40:13.138Z,1029.15
2017-12-02T10:41:40.476Z,1029.18
2017-12-02T10:43:07.884Z,1029.13
2017-12-02T10:44:35.019Z,1029.10
2017-12-02T10:46:02.419Z,1029.11
2017-12-02T10:47:29.678Z,1029.11
2017-12-02T10:48:56.564Z,1029.14
2017-12-02T10:50:23.794Z,1029.18
2017-12-02T10:51:51.198Z,1029.19
2017-12-02T10:53:18.347Z,1029.22
2017-12-02T10:54:45.786Z,1029.21
2017-12-02T10:56:13.010Z,1029.21
2017-12-02T10:57:40.218Z,1029.17
2017-12-02T10:59:07.466Z,1029.15
2017-12-02T11:00:34.781Z,1029.14
2017-12-02T11:02:01.882Z,1029.09
2017-12-02T11:03:28.977Z,1029.07
2017-12-02T11:04:56.227Z,1029.06
2017-12-02T11:06:23.665Z,1029.08
2017-12-02T11:07:50.902Z,1029.09
2017-12-02T11:09:18.158Z,1029.08
2017-12-02T11:10:45.383Z,1029.10
2017-12-02T11:12:12.585Z,1029.08
2017-12-02T11:13:39.800Z,1029.09
2017-12-02T11:15:06.993Z,1029.10
2017-12-02T11:16:34.130Z,1029.13
2017-12-02T11:18:01.250Z,1029.16
2017-12-02T11:19:28.637Z,1029.12
2017-12-02T11:20:55.922Z,1029.15
2017-12-02T11:22:23.000Z,1029.14
2017-12-02T11:23:50.337Z,1029.12
2017-12-02T11:25:17.508Z,1029.11
2017-12-02T11:26:44.619Z,1029.09
2017-12-02T11:28:11.951Z,1029.05
2017-12-02T11:29:39.019Z,1029.02
2017-12-02T11:31:06.323Z,1029.01
2017-12-02T11:32:33.539Z,1029.00
2017-12-02T11:34:00.776Z,1029.00
2017-12-02T11:35:28.147Z,1028.99
2017-12-02T11:36:55.536Z,1029.00
2017-12-02T11:38:22.861Z,1029.02
2017-12-02T11:39:50.120Z,1029.03
2017-12-02T11:41:17.507Z,1029.08
2017-12-02T11:42:44.840Z,1029.12
2017-12-02T11:44:12.033Z,1029.13
2017-12-02T11:45:39.351Z,1029.15
2017-12-02T11:47:06.640Z,1029.15
2017-12-02T11:48:33.877Z,1029.18
2017-12-02T11:50:01.017Z,1029.21
2017-12-02T11:51:28.746Z,1029.20
2017-12-02T11:52:55.417Z,1029.17
2017-12-02T11:54:22.498Z,1029.21
2017-12-02T11:55:49.988Z,1029.28
2017-12-02T11:57:17.268Z,1029.26
2017-12-02T11:58:44.438Z,1029.26
2017-12-02T12:00:11.653Z,1029.30
2017-12-02T12:01:38.725Z,1029.35
2017-12-02T12:03:05.921Z,1029.34
2017-12-02T12:04:33.116Z,1029.38
2017-12-02T12:06:00.063Z,1029.38
2017-12-02T12:07:27.380Z,1029.38
2017-12-02T12:08:54.429Z,1029.40
2017-12-02T12:10:21.627Z,1029.41
2017-12-02T12:11:48.848Z,1029.39
2017-12-02T12:13:16.088Z,1029.40
2017-12-02T12:14:43.446Z,1029.45
2017-12-02T12:16:10.703Z,1029.47
2017-12-02T12:17:38.019Z,1029.46
2017-12-02T12:19:05.081Z,1029.49
2017-12-02T12:20:32.461Z,1029.49
2017-12-02T12:21:59.440Z,1029.48
2017-12-02T12:23:26.657Z,1029.48
2017-12-02T12:24:53.988Z,1029.48
2017-12-02T12:26:21.275Z,1029.46
2017-12-02T12:27:48.480Z,1029.44
2017-12-02T12:29:15.541Z,1029.43
2017-12-02T12:30:42.874Z,1029.47
2017-12-02T12:32:10.035Z,1029.49
2017-12-02T12:33:37.177Z,1029.50
2017-12-02T12:35:04.588Z,1029.49
2017-12-02T12:36:31.470Z,1029.49
2017-12-02T12:37:58.517Z,1029.50
2017-12-02T12:39:25.973Z,1029.50
2017-12-02T12:40:53.158Z,1029.50
2017-12-02T12:42:20.445Z,1029.53
2017-12-02T12:43:47.734Z,1029.51
2017-12-02T12:45:15.061Z,1029.50
2017-12-02T12:46:42.326Z,1029.47
2017-12-02T12:48:09.560Z,1029.50
2017-12-02T12:49:36.889Z,1029.51
2017-12-02T12:51:03.965Z,1029.50
2017-12-02T12:52:31.176Z,1029.54
2017-12-02T12:53:58.433Z,1029.54
2017-12-02T12:55:25.499Z,1029.57
2017-12-02T12:56:52.611Z,1029.57
2017-12-02T12:58:20.002Z,1029.57
2017-12-02T12:59:46.958Z,1029.57
2017-12-02T13:01:14.283Z,1029.53
2017-12-02T13:02:41.474Z,1029.54
2017-12-02T13:04:08.565Z,1029.56
2017-12-02T13:05:35.882Z,1029.56
2017-12-02T13:07:02.888Z,1029.57
2017-12-02T13:08:30.035Z,1029.53
2017-12-02T13:09:57.286Z,1029.55
2017-12-02T13:11:24.423Z,1029.56
2017-12-02T13:12:51.708Z,1029.55
2017-12-02T13:14:19.115Z,1029.55
2017-12-02T13:15:46.406Z,1029.58
2017-12-02T13:17:13.590Z,1029.61
2017-12-02T13:18:41.015Z,1029.60
2017-12-02T13:20:08.320Z,1029.57
2017-12-02T13:21:35.412Z,1029.62
2017-12-02T13:23:02.813Z,1029.63
2017-12-02T13:24:29.920Z,1029.60
2017-12-02T13:25:57.217Z,1029.61
2017-12-02T13:27:24.571Z,1029.59
2017-12-02T13:28:51.665Z,1029.60
2017-12-02T13:30:19.081Z,1029.59
2017-12-02T13:31:46.259Z,1029.55
2017-12-02T13:33:13.617Z,1029.51
2017-12-02T13:34:40.921Z,1029.50
2017-12-02T13:36:08.219Z,1029.52
2017-12-02T13:37:35.546Z,1029.51
2017-12-02T13:39:02.813Z,1029.51
2017-12-02T13:40:29.883Z,1029.50
2017-12-02T13:41:56.971Z,1029.49
2017-12-02T13:43:24.395Z,1029.49
2017-12-02T13:44:51.878Z,1029.46
2017-12-02T13:46:19.127Z,1029.44
2017-12-02T13:47:46.400Z,1029.43
2017-12-02T13:49:13.470Z,1029.37
2017-12-02T13:50:40.888Z,1029.35
2017-12-02T13:52:08.060Z,1029.33
2017-12-02T13:53:35.200Z,1029.31
2017-12-02T13:55:02.700Z,1029.30
2017-12-02T13:56:29.768Z,1029.32
2017-12-02T13:57:57.074Z,1029.32
2017-12-02T13:59:24.212Z,1029.30
2017-12-02T14:00:51.469Z,1029.29
2017-12-02T14:02:18.765Z,1029.25
2017-12-02T14:03:45.964Z,1029.25
2017-12-02T14:05:13.219Z,1029.25
2017-12-02T14:06:40.444Z,1029.26
2017-12-02T14:08:07.805Z,1029.25
2017-12-02T14:09:34.964Z,1029.27
2017-12-02T14:11:02.008Z,1029.26
2017-12-02T14:12:29.295Z,1029.25
2017-12-02T14:13:56.360Z,1029.27
2017-12-02T14:15:23.458Z,1029.29
2017-12-02T14:16:50.903Z,1029.27
2017-12-02T14:18:17.948Z,1029.25
2017-12-02T14:19:45.079Z,1029.23
2017-12-02T14:21:12.384Z,1029.23
2017-12-02T14:22:39.766Z,1029.23
2017-12-02T14:24:07.117Z,1029.22
2017-12-02T14:25:34.321Z,1029.23
2017-12-02T14:27:01.585Z,1029.21
2017-12-02T14:28:28.785Z,1029.20
2017-12-02T14:29:56.056Z,1029.18
2017-12-02T14:31:23.307Z,1029.20
2017-12-02T14:32:50.693Z,1029.20
2017-12-02T14:34:18.002Z,1029.20
2017-12-02T14:35:45.127Z,1029.22
2017-12-02T14:37:12.422Z,1029.24
2017-12-02T14:38:39.628Z,1029.26
2017-12-02T14:40:07.019Z,1029.27
2017-12-02T14:41:34.173Z,1029.29
2017-12-02T14:43:01.095Z,1029.26
2017-12-02T14:44:28.109Z,1029.25
2017-12-02T14:45:55.266Z,1029.26
2017-12-02T14:47:22.526Z,1029.24
2017-12-02T14:48:49.756Z,1029.24
2017-12-02T14:50:17.110Z,1029.24
2017-12-02T14:51:44.532Z,1029.27
2017-12-02T14:53:11.691Z,1029.28
2017-12-02T14:54:38.888Z,1029.28
2017-12-02T14:56:06.375Z,1029.28
2017-12-02T14:57:33.483Z,1029.27
2017-12-02T14:59:00.519Z,1029.26
2017-12-02T15:00:27.542Z,1029.29
2017-12-02T15:01:54.729Z,1029.29
2017-12-02T15:03:21.939Z,1029.27
2017-12-02T15:04:49.297Z,1029.27
2017-12-02T15:06:16.526Z,1029.25
2017-12-02T15:07:43.842Z,1029.21
2017-12-02T15:09:11.103Z,1029.20
2017-12-02T15:10:38.404Z,1029.21
2017-12-02T15:12:05.503Z,1029.19
2017-12-02T15:13:32.638Z,1029.18
2017-12-02T15:14:59.888Z,1029.20
2017-12-02T15:16:26.814Z,1029.19
2017-12-02T15:17:54.308Z,1029.18
2017-12-02T15:19:21.301Z,1029.18
2017-12-02T15:20:48.659Z,1029.16
2017-12-02T15:22:15.934Z,1029.13
2017-12-02T15:23:43.200Z,1029.10
2017-12-02T15:25:10.605Z,1029.05
2017-12-02T15:26:37.951Z,1029.03
2017-12-02T15:28:05.060Z,1029.01
2017-12-02T15:29:32.030Z,1028.99
2017-12-02T15:30:59.230Z,1028.98
2017-12-02T15:32:26.324Z,1028.97
2017-12-02T15:33:53.646Z,1028.97
2017-12-02T15:35:20.864Z,1028.96
2017-12-02T15:36:47.977Z,1028.98
2017-12-02T15:38:15.150Z,1029.01
2017-12-02T15:39:42.418Z,1029.02
2017-12-02T15:41:09.624Z,1029.04
2017-12-02T15:42:36.967Z,1029.04
2017-12-02T15:44:04.141Z,1029.02
2017-12-02T15:45:31.315Z,1029.03
2017-12-02T15:46:58.408Z,1029.06
2017-12-02T15:48:25.549Z,1029.06
2017-12-02T15:49:52.903Z,1029.07
2017-12-02T15:51:28.280Z,1029.08
2017-12-02T15:52:47.387Z,1029.05
2017-12-02T15:54:14.660Z,1029.07
2017-12-02T15:55:41.896Z,1029.10
2017-12-02T15:57:09.109Z,1029.12
2017-12-02T15:58:36.301Z,1029.16
2017-12-02T16:00:03.452Z,1029.22
2017-12-02T16:01:30.336Z,1029.26
2017-12-02T16:02:57.707Z,1029.29
2017-12-02T16:04:24.917Z,1029.30
2017-12-02T16:05:52.313Z,1029.29
2017-12-02T16:07:19.547Z,1029.29
2017-12-02T16:08:46.813Z,1029.34
2017-12-02T16:10:13.955Z,1029.33
2017-12-02T16:11:40.979Z,1029.36
2017-12-02T16:13:08.177Z,1029.38
2017-12-02T16:14:35.512Z,1029.40
2017-12-02T16:16:02.535Z,1029.43
2017-12-02T16:17:29.681Z,1029.43
2017-12-02T16:18:56.842Z,1029.41
2017-12-02T16:20:23.989Z,1029.40
2017-12-02T16:21:51.165Z,1029.40
2017-12-02T16:23:18.453Z,1029.42
2017-12-02T16:24:45.849Z,1029.40
2017-12-02T16:26:13.220Z,1029.36
2017-12-02T16:27:40.433Z,1029.39
2017-12-02T16:29:07.593Z,1029.41
2017-12-02T16:30:34.600Z,1029.44
2017-12-02T16:32:01.673Z,1029.45
2017-12-02T16:33:28.707Z,1029.45
2017-12-02T16:34:56.118Z,1029.44
2017-12-02T16:36:23.278Z,1029.45
2017-12-02T16:37:50.491Z,1029.47
2017-12-02T16:39:17.683Z,1029.47
2017-12-02T16:40:44.723Z,1029.48
2017-12-02T16:42:11.899Z,1029.50
2017-12-02T16:43:39.113Z,1029.50
2017-12-02T16:45:06.519Z,1029.49
2017-12-02T16:46:33.819Z,1029.48
2017-12-02T16:48:00.986Z,1029.48
2017-12-02T16:49:27.988Z,1029.47
2017-12-02T16:50:55.205Z,1029.48
2017-12-02T16:52:22.411Z,1029.50
2017-12-02T16:53:49.582Z,1029.50
2017-12-02T16:55:16.626Z,1029.48
2017-12-02T16:56:43.688Z,1029.46
2017-12-02T16:58:10.883Z,1029.42
2017-12-02T16:59:38.184Z,1029.40
2017-12-02T17:01:05.330Z,1029.36
2017-12-02T17:02:32.666Z,1029.35
2017-12-02T17:03:59.668Z,1029.36
2017-12-02T17:05:26.671Z,1029.38
2017-12-02T17:06:54.016Z,1029.38
2017-12-02T17:08:21.392Z,1029.37
2017-12-02T17:09:48.557Z,1029.35
2017-12-02T17:11:15.714Z,1029.36
2017-12-02T17:12:42.907Z,1029.38
2017-12-02T17:14:10.212Z,1029.39
2017-12-02T17:15:37.444Z,1029.37
2017-12-02T17:17:04.457Z,1029.36
2017-12-02T17:18:31.650Z,1029.41
2017-12-02T17:19:58.955Z,1029.37
2017-12-02T17:21:26.235Z,1029.38
2017-12-02T17:22:53.335Z,1029.38
2017-12-02T17:24:20.577Z,1029.40
2017-12-02T17:25:47.663Z,1029.43
2017-12-02T17:27:14.765Z,1029.45
2017-12-02T17:28:42.176Z,1029.44
2017-12-02T17:30:09.405Z,1029.45
2017-12-02T17:31:36.859Z,1029.44
2017-12-02T17:33:03.872Z,1029.46
2017-12-02T17:34:30.950Z,1029.46